Time;durP1;ratioP1;P1;durP2;ratioP2;P2;SDS_P1;SDS_P2;PMS_P1;PMS_P2;Temp;Humidity;BMP_temperature;BMP_pressure;BME280_temperature;BME280_humidity;BME280_pressure;Samples;Min_cycle;Max_cycle;Signal;HPM_P1;HPM_P2
2023/03/25 00:01:01;;;;;;;6.50;3.50;;;11.30;99.90;;;;;;4993074;28;20064;-51
2023/03/25 00:03:49;;;;;;;6.93;4.10;;;11.30;99.90;;;;;;4993602;28;20479;-52
2023/03/25 00:06:35;;;;;;;6.03;3.75;;;11.30;99.90;;;;;;4993021;28;20035;-49
2023/03/25 00:09:22;;;;;;;6.60;3.80;;;11.20;99.90;;;;;;4992235;28;20034;-52
2023/03/25 00:12:08;;;;;;;7.93;4.18;;;11.20;99.90;;;;;;4992896;28;20037;-49
2023/03/25 00:14:54;;;;;;;6.68;3.70;;;11.10;99.90;;;;;;4992353;28;20069;-52
2023/03/25 00:17:41;;;;;;;6.63;3.92;;;11.10;99.90;;;;;;4992484;28;20388;-51
2023/03/25 00:20:27;;;;;;;7.28;4.75;;;11.20;99.90;;;;;;4992732;28;20065;-48
2023/03/25 00:23:13;;;;;;;10.25;5.05;;;11.10;99.90;;;;;;4992933;28;20022;-50
2023/03/25 00:25:59;;;;;;;8.30;5.00;;;11.10;99.90;;;;;;4993626;28;20402;-51
2023/03/25 00:28:45;;;;;;;9.02;4.68;;;11.10;99.90;;;;;;4991702;28;20372;-51
2023/03/25 00:31:31;;;;;;;6.07;4.03;;;11.10;99.90;;;;;;4992492;28;20376;-48
2023/03/25 00:34:17;;;;;;;5.00;3.63;;;11.10;99.90;;;;;;4991737;28;20054;-51
2023/03/25 00:37:03;;;;;;;8.40;4.60;;;11.00;99.90;;;;;;4991064;28;20447;-53
2023/03/25 00:39:48;;;;;;;8.95;4.82;;;11.00;99.90;;;;;;4991678;28;20407;-50
2023/03/25 00:42:34;;;;;;;8.43;5.28;;;11.00;99.90;;;;;;4991441;28;20606;-47
2023/03/25 00:45:20;;;;;;;7.40;4.95;;;11.00;99.90;;;;;;4991192;28;20030;-51
2023/03/25 00:48:06;;;;;;;7.95;5.40;;;10.90;99.90;;;;;;4991258;28;20106;-48
2023/03/25 00:50:52;;;;;;;10.43;6.10;;;11.00;99.90;;;;;;4992711;28;20026;-51
2023/03/25 00:53:39;;;;;;;10.55;5.88;;;10.90;99.90;;;;;;4990762;28;20097;-50
2023/03/25 00:56:25;;;;;;;11.07;6.25;;;11.00;99.90;;;;;;4992059;28;20117;-49
2023/03/25 00:59:11;;;;;;;9.05;6.10;;;11.00;99.90;;;;;;4990420;28;20173;-48
2023/03/25 01:01:57;;;;;;;9.35;6.53;;;11.00;99.90;;;;;;4990918;28;20027;-52
2023/03/25 01:04:44;;;;;;;10.00;5.90;;;10.90;99.90;;;;;;4991781;28;20080;-52
2023/03/25 01:07:30;;;;;;;11.82;5.80;;;10.90;99.90;;;;;;4991892;28;20026;-51
2023/03/25 01:10:17;;;;;;;7.10;5.57;;;10.90;99.90;;;;;;4991727;28;20022;-48
2023/03/25 01:13:03;;;;;;;7.30;4.82;;;10.90;99.90;;;;;;4991663;28;20031;-50
2023/03/25 01:15:49;;;;;;;7.00;4.55;;;10.80;99.90;;;;;;4991055;28;20057;-49
2023/03/25 01:18:36;;;;;;;9.35;5.35;;;10.90;99.90;;;;;;4991040;28;20034;-51
2023/03/25 01:21:23;;;;;;;8.05;4.72;;;10.90;99.90;;;;;;4991579;28;20519;-48
2023/03/25 01:24:12;;;;;;;8.43;4.85;;;11.00;99.90;;;;;;4991498;28;20045;-52
2023/03/25 01:26:58;;;;;;;7.32;4.35;;;11.00;99.90;;;;;;4990963;28;20026;-47
2023/03/25 01:29:44;;;;;;;4.82;3.53;;;10.90;99.90;;;;;;4991995;28;20521;-47
2023/03/25 01:32:30;;;;;;;4.90;3.40;;;10.80;99.90;;;;;;4992066;28;20065;-48
2023/03/25 01:35:16;;;;;;;7.82;3.55;;;10.80;99.90;;;;;;4990509;28;20617;-49
2023/03/25 01:38:03;;;;;;;6.47;2.97;;;10.70;99.90;;;;;;4990655;28;20077;-51
2023/03/25 01:40:51;;;;;;;7.38;3.40;;;10.70;99.90;;;;;;4991754;28;20026;-49
2023/03/25 01:43:37;;;;;;;4.85;2.67;;;10.60;99.90;;;;;;4991748;28;20105;-47
2023/03/25 01:46:22;;;;;;;5.45;3.20;;;10.70;99.90;;;;;;4991276;28;20026;-49
2023/03/25 01:49:12;;;;;;;6.82;2.70;;;10.60;99.90;;;;;;4990039;28;20026;-49
2023/03/25 01:52:24;;;;;;;3.70;2.40;;;10.50;99.90;;;;;;4990727;28;20085;-52
2023/03/25 01:55:10;;;;;;;5.80;2.40;;;10.60;99.90;;;;;;4990013;28;20030;-52
2023/03/25 01:57:58;;;;;;;3.53;2.53;;;10.70;99.90;;;;;;4991008;28;20073;-53
2023/03/25 02:00:46;;;;;;;4.22;2.47;;;10.60;99.90;;;;;;4991133;28;20466;-48
2023/03/25 02:03:35;;;;;;;5.38;2.33;;;10.60;99.90;;;;;;4990698;28;20022;-52
2023/03/25 02:06:30;;;;;;;3.88;2.25;;;10.60;99.90;;;;;;4990547;28;20410;-52
2023/03/25 02:09:19;;;;;;;3.13;1.92;;;10.60;99.90;;;;;;4991314;28;20030;-49
2023/03/25 02:12:05;;;;;;;2.95;2.00;;;10.50;99.90;;;;;;4991044;28;20423;-48
2023/03/25 02:14:51;;;;;;;4.57;2.53;;;10.50;99.90;;;;;;4991217;28;20034;-50
2023/03/25 02:18:01;;;;;;;4.50;2.25;;;10.50;99.90;;;;;;4991196;28;20027;-51
2023/03/25 02:21:17;;;;;;;3.35;2.03;;;10.50;99.90;;;;;;4990071;28;20026;-48
2023/03/25 02:24:52;;;;;;;4.75;2.28;;;10.50;99.90;;;;;;4990893;28;20074;-51
2023/03/25 02:28:09;;;;;;;5.60;3.05;;;10.60;99.90;;;;;;4991032;28;20042;-51
2023/03/25 02:31:14;;;;;;;4.70;2.33;;;10.60;99.90;;;;;;4990241;28;20027;-51
2023/03/25 02:34:00;;;;;;;8.15;3.50;;;10.50;99.90;;;;;;4990331;28;20073;-48
2023/03/25 02:37:02;;;;;;;4.85;2.42;;;10.60;99.90;;;;;;4989960;28;20117;-49
2023/03/25 02:40:05;;;;;;;3.17;2.25;;;10.60;99.90;;;;;;4991162;28;20038;-52
2023/03/25 02:42:59;;;;;;;4.18;2.00;;;10.60;99.90;;;;;;4991430;28;20157;-48
2023/03/25 02:45:52;;;;;;;6.57;2.55;;;10.60;99.90;;;;;;4990978;28;20030;-47
2023/03/25 02:49:05;;;;;;;3.33;2.25;;;10.60;99.90;;;;;;4989903;28;20034;-48
2023/03/25 02:52:10;;;;;;;4.28;2.08;;;10.50;99.90;;;;;;4990842;28;20117;-49
2023/03/25 02:55:00;;;;;;;3.70;2.03;;;10.50;99.90;;;;;;4989835;28;20034;-49
2023/03/25 02:57:51;;;;;;;4.70;2.38;;;10.40;99.90;;;;;;4976341;28;20027;-50
2023/03/25 03:00:38;;;;;;;5.07;2.03;;;10.40;99.90;;;;;;4990380;28;20042;-47
2023/03/25 03:03:26;;;;;;;4.60;2.72;;;10.40;99.90;;;;;;4990391;28;20487;-51
2023/03/25 03:06:17;;;;;;;3.42;2.20;;;10.40;99.90;;;;;;4990433;28;20038;-54
2023/03/25 03:09:24;;;;;;;4.72;2.25;;;10.50;99.90;;;;;;4993761;28;20053;-55
2023/03/25 03:12:28;;;;;;;4.15;2.40;;;10.50;99.90;;;;;;4993736;28;20019;-53
2023/03/25 03:15:31;;;;;;;3.17;2.20;;;10.50;99.90;;;;;;4993753;28;20923;-52
2023/03/25 03:18:41;;;;;;;4.10;2.17;;;10.50;99.90;;;;;;4994259;28;20105;-48
2023/03/25 03:21:40;;;;;;;2.53;1.83;;;10.50;99.90;;;;;;4994984;28;20113;-50
2023/03/25 03:24:37;;;;;;;3.22;1.80;;;10.40;99.90;;;;;;4992831;28;20046;-49
2023/03/25 03:27:37;;;;;;;2.90;2.13;;;10.40;99.90;;;;;;4998506;28;20023;-57
2023/03/25 03:30:38;;;;;;;3.55;2.40;;;10.50;99.90;;;;;;4995752;28;20034;-50
2023/03/25 03:33:32;;;;;;;4.97;2.15;;;10.50;99.90;;;;;;4994479;28;20470;-48
2023/03/25 03:36:28;;;;;;;3.38;2.20;;;10.50;99.90;;;;;;4993423;28;20422;-51
2023/03/25 03:39:27;;;;;;;4.57;2.60;;;10.40;99.90;;;;;;4993493;28;20027;-49
2023/03/25 03:42:35;;;;;;;4.78;2.30;;;10.50;99.90;;;;;;4993176;28;20576;-48
2023/03/25 03:45:28;;;;;;;2.30;2.00;;;10.50;99.90;;;;;;4993734;28;20025;-48
2023/03/25 03:48:43;;;;;;;6.75;2.40;;;10.50;99.90;;;;;;4992798;28;20031;-50
2023/03/25 03:51:29;;;;;;;4.80;2.10;;;10.50;99.90;;;;;;4994080;28;20034;-50
2023/03/25 03:54:20;;;;;;;4.25;2.15;;;10.50;99.90;;;;;;4992592;28;20030;-53
2023/03/25 03:57:20;;;;;;;3.75;2.17;;;10.40;99.90;;;;;;4992700;28;20447;-50
2023/03/25 04:00:21;;;;;;;4.20;2.25;;;10.40;99.90;;;;;;4992921;28;20124;-49
2023/03/25 04:03:14;;;;;;;4.25;2.20;;;10.40;99.90;;;;;;4993081;28;20168;-49
2023/03/25 04:06:08;;;;;;;2.67;1.80;;;10.50;99.90;;;;;;4993787;28;20027;-53
2023/03/25 04:09:25;;;;;;;3.95;2.28;;;10.40;99.90;;;;;;4993329;28;20026;-51
2023/03/25 04:12:23;;;;;;;3.55;1.90;;;10.40;99.90;;;;;;4978987;28;20026;-47
2023/03/25 04:15:10;;;;;;;3.10;2.03;;;10.40;99.90;;;;;;4992698;28;20380;-49
2023/03/25 04:17:56;;;;;;;4.00;2.03;;;10.40;99.90;;;;;;4992900;28;20101;-53
2023/03/25 04:20:43;;;;;;;2.95;2.10;;;10.40;99.90;;;;;;4991707;28;20034;-50
2023/03/25 04:23:29;;;;;;;4.85;1.77;;;10.40;99.90;;;;;;4992984;28;20034;-50
2023/03/25 04:26:16;;;;;;;2.38;1.63;;;10.30;99.90;;;;;;4991571;28;20023;-48
2023/03/25 04:29:03;;;;;;;3.92;2.20;;;10.30;99.90;;;;;;4991225;28;20022;-52
2023/03/25 04:31:49;;;;;;;3.47;2.00;;;10.30;99.90;;;;;;4991958;28;20109;-49
2023/03/25 04:34:35;;;;;;;2.00;1.80;;;10.30;99.90;;;;;;4992627;28;20061;-54
2023/03/25 04:37:22;;;;;;;3.53;1.95;;;10.20;99.90;;;;;;4991759;28;20027;-51
2023/03/25 04:40:09;;;;;;;2.53;1.55;;;10.30;99.90;;;;;;4992149;28;20038;-51
2023/03/25 04:42:55;;;;;;;2.80;1.80;;;10.30;99.90;;;;;;4992015;28;20035;-53
2023/03/25 04:45:47;;;;;;;3.72;2.00;;;10.30;99.90;;;;;;4991906;28;20406;-51
2023/03/25 04:48:40;;;;;;;1.85;1.45;;;10.30;99.90;;;;;;4993029;28;20022;-49
2023/03/25 04:51:26;;;;;;;3.17;1.90;;;10.30;99.90;;;;;;4992601;28;20027;-48
2023/03/25 04:54:12;;;;;;;3.22;1.70;;;10.30;99.90;;;;;;4991218;28;20085;-51
2023/03/25 04:56:58;;;;;;;2.75;1.45;;;10.30;99.90;;;;;;4991922;28;20041;-49
2023/03/25 04:59:44;;;;;;;3.17;1.65;;;10.20;99.90;;;;;;4991232;28;20491;-53
2023/03/25 05:02:30;;;;;;;3.30;2.13;;;10.20;99.90;;;;;;4991562;28;20081;-52
2023/03/25 05:05:19;;;;;;;3.80;1.90;;;10.20;99.90;;;;;;4990983;28;20018;-52
2023/03/25 05:08:04;;;;;;;5.03;1.70;;;10.30;99.90;;;;;;4991602;28;20027;-51
2023/03/25 05:10:51;;;;;;;4.43;1.88;;;10.30;99.90;;;;;;4991964;28;20026;-51
2023/03/25 05:13:37;;;;;;;4.63;1.80;;;10.20;99.90;;;;;;4991012;28;20626;-55
2023/03/25 05:16:23;;;;;;;2.60;1.90;;;10.20;99.90;;;;;;4990572;28;20423;-52
2023/03/25 05:19:09;;;;;;;3.40;1.90;;;10.20;99.90;;;;;;4992019;28;20037;-49
2023/03/25 05:21:56;;;;;;;3.00;1.80;;;10.20;99.90;;;;;;4991706;28;20065;-48
2023/03/25 05:24:44;;;;;;;1.90;1.42;;;10.20;99.90;;;;;;4991417;28;20026;-51
2023/03/25 05:27:32;;;;;;;3.55;1.55;;;10.20;99.90;;;;;;4990955;28;20096;-48
2023/03/25 05:30:18;;;;;;;2.83;1.95;;;10.20;99.90;;;;;;4990823;28;20034;-49
2023/03/25 05:33:05;;;;;;;2.78;1.80;;;10.10;99.90;;;;;;4991190;28;20022;-48
2023/03/25 05:35:51;;;;;;;3.42;1.90;;;10.00;99.90;;;;;;4991544;28;20101;-48
2023/03/25 05:38:40;;;;;;;2.53;1.70;;;10.00;99.90;;;;;;4991727;28;20035;-49
2023/03/25 05:41:37;;;;;;;4.15;1.67;;;10.00;99.90;;;;;;4991978;28;20042;-54
2023/03/25 05:44:25;;;;;;;3.03;1.40;;;9.90;99.90;;;;;;4991069;28;20033;-50
2023/03/25 05:47:11;;;;;;;3.65;1.92;;;10.00;99.90;;;;;;4991322;28;20031;-49
2023/03/25 05:49:57;;;;;;;2.33;1.77;;;10.00;99.90;;;;;;4991589;28;20510;-48
2023/03/25 05:52:44;;;;;;;6.05;1.77;;;10.00;99.90;;;;;;4991218;28;20414;-48
2023/03/25 05:55:30;;;;;;;5.22;2.15;;;10.00;99.90;;;;;;4976781;28;20027;-52
2023/03/25 05:58:16;;;;;;;3.92;2.28;;;10.10;99.90;;;;;;4991701;28;20150;-52
2023/03/25 06:01:03;;;;;;;3.97;1.98;;;10.10;99.90;;;;;;4990733;28;20069;-53
2023/03/25 06:03:49;;;;;;;3.58;1.70;;;10.20;99.90;;;;;;4991049;28;20403;-53
2023/03/25 06:06:35;;;;;;;5.18;1.92;;;10.20;99.90;;;;;;4991264;28;20027;-55
2023/03/25 06:09:21;;;;;;;4.97;2.15;;;10.20;99.90;;;;;;4976940;28;20030;-48
2023/03/25 06:12:07;;;;;;;3.80;1.90;;;10.20;99.90;;;;;;4989954;28;20034;-48
2023/03/25 06:14:53;;;;;;;7.55;2.17;;;10.20;99.90;;;;;;4991404;28;20034;-51
2023/03/25 06:17:39;;;;;;;4.80;2.13;;;10.20;99.90;;;;;;4991125;28;20501;-53
2023/03/25 06:20:25;;;;;;;3.35;2.35;;;10.20;99.90;;;;;;4991145;28;20030;-51
2023/03/25 06:23:11;;;;;;;5.70;2.53;;;10.00;99.90;;;;;;4991184;28;20054;-52
2023/03/25 06:25:57;;;;;;;8.02;2.05;;;10.00;99.90;;;;;;4991261;28;20439;-51
2023/03/25 06:28:44;;;;;;;4.47;2.33;;;10.00;99.90;;;;;;4991218;28;20380;-51
2023/03/25 06:31:32;;;;;;;3.70;2.00;;;10.10;99.90;;;;;;4990390;28;20045;-47
2023/03/25 06:34:18;;;;;;;2.92;1.98;;;10.00;99.90;;;;;;4992094;28;20034;-52
2023/03/25 06:37:05;;;;;;;5.35;2.35;;;10.10;99.90;;;;;;4990946;28;20495;-52
2023/03/25 06:39:55;;;;;;;4.50;2.00;;;10.20;99.90;;;;;;4989282;28;20061;-50
2023/03/25 06:42:41;;;;;;;4.63;2.60;;;10.20;99.90;;;;;;4992820;28;20026;-48
2023/03/25 06:45:26;;;;;;;5.13;3.05;;;10.20;99.90;;;;;;4993783;28;20023;-48
2023/03/25 06:48:12;;;;;;;5.55;2.90;;;10.20;99.90;;;;;;4994688;28;20054;-48
2023/03/25 06:50:59;;;;;;;5.68;2.20;;;10.30;99.90;;;;;;4995059;28;20080;-47
2023/03/25 06:53:45;;;;;;;5.07;2.70;;;10.30;99.90;;;;;;5013589;28;20066;-48
2023/03/25 06:56:31;;;;;;;3.30;1.77;;;10.20;99.90;;;;;;5014133;28;20029;-49
2023/03/25 06:59:17;;;;;;;4.57;2.05;;;10.20;99.90;;;;;;5014419;28;20109;-51
2023/03/25 07:02:03;;;;;;;7.45;2.30;;;10.10;99.90;;;;;;5017194;28;20394;-50
2023/03/25 07:04:49;;;;;;;5.10;2.00;;;10.00;99.90;;;;;;5018684;28;20022;-47
2023/03/25 07:07:35;;;;;;;6.10;2.58;;;9.90;99.90;;;;;;5020687;28;20072;-49
2023/03/25 07:10:21;;;;;;;5.15;2.20;;;9.90;99.90;;;;;;5013866;28;20110;-48
2023/03/25 07:13:08;;;;;;;4.65;2.00;;;10.00;99.90;;;;;;5014458;28;20026;-53
2023/03/25 07:15:55;;;;;;;2.85;2.13;;;10.00;99.90;;;;;;5014199;28;20379;-53
2023/03/25 07:18:41;;;;;;;3.00;2.00;;;10.10;99.90;;;;;;5010939;28;20160;-54
2023/03/25 07:21:27;;;;;;;2.80;2.00;;;10.10;99.90;;;;;;4999223;28;20058;-50
2023/03/25 07:24:13;;;;;;;3.38;1.95;;;10.00;99.90;;;;;;4994558;28;20038;-49
2023/03/25 07:26:59;;;;;;;4.47;2.53;;;10.00;99.90;;;;;;4993348;28;20041;-50
2023/03/25 07:29:45;;;;;;;2.38;1.60;;;9.90;99.90;;;;;;5007011;28;20557;-49
2023/03/25 07:32:31;;;;;;;3.83;2.20;;;9.90;99.90;;;;;;4992739;28;20034;-50
2023/03/25 07:35:17;;;;;;;2.63;1.88;;;10.00;99.90;;;;;;5011114;28;20061;-54
2023/03/25 07:38:03;;;;;;;3.05;1.60;;;10.10;99.90;;;;;;5012984;28;20057;-53
2023/03/25 07:40:49;;;;;;;4.28;1.98;;;10.20;99.90;;;;;;4997960;28;20030;-50
2023/03/25 07:43:36;;;;;;;3.05;1.77;;;10.30;99.90;;;;;;5011801;28;20026;-51
2023/03/25 07:46:21;;;;;;;2.00;1.55;;;10.30;99.90;;;;;;5013256;28;20018;-52
2023/03/25 07:49:07;;;;;;;4.07;2.00;;;10.20;99.90;;;;;;4994035;28;20031;-54
2023/03/25 07:51:53;;;;;;;5.25;1.70;;;10.20;99.90;;;;;;5005679;28;20168;-53
2023/03/25 07:54:39;;;;;;;3.80;1.95;;;10.10;99.90;;;;;;5012287;28;20068;-51
2023/03/25 07:57:25;;;;;;;2.30;1.58;;;10.00;99.90;;;;;;5011644;28;20030;-50
2023/03/25 08:00:12;;;;;;;2.85;1.70;;;10.00;99.90;;;;;;5011826;28;20042;-48
2023/03/25 08:02:58;;;;;;;3.90;1.65;;;9.80;99.90;;;;;;5011357;28;20036;-48
2023/03/25 08:05:47;;;;;;;4.57;2.08;;;9.80;99.90;;;;;;5011174;28;20502;-53
2023/03/25 08:08:33;;;;;;;2.85;1.77;;;9.90;99.90;;;;;;5011323;28;20038;-52
2023/03/25 08:11:20;;;;;;;2.20;1.67;;;10.00;99.90;;;;;;5011281;28;20510;-48
2023/03/25 08:14:06;;;;;;;3.40;1.70;;;9.90;99.90;;;;;;4996234;28;20026;-55
2023/03/25 08:16:52;;;;;;;3.60;1.85;;;9.90;99.90;;;;;;5012575;28;20652;-52
2023/03/25 08:19:38;;;;;;;2.08;1.75;;;9.80;99.90;;;;;;5011484;28;20038;-53
2023/03/25 08:22:24;;;;;;;3.85;1.98;;;9.70;99.90;;;;;;4996413;28;20101;-54
2023/03/25 08:25:10;;;;;;;3.22;1.98;;;9.70;99.90;;;;;;5011569;28;20022;-50
2023/03/25 08:27:56;;;;;;;3.40;1.70;;;9.70;99.90;;;;;;5011386;28;20025;-48
2023/03/25 08:30:43;;;;;;;3.03;1.92;;;9.90;99.90;;;;;;5011073;28;20116;-50
2023/03/25 08:33:33;;;;;;;3.33;2.03;;;10.10;99.90;;;;;;4992830;28;20146;-50
2023/03/25 08:36:21;;;;;;;2.20;1.70;;;10.20;99.90;;;;;;4991499;28;20049;-53
2023/03/25 08:39:10;;;;;;;3.03;1.85;;;10.20;99.90;;;;;;4993686;28;20080;-50
2023/03/25 08:41:57;;;;;;;2.70;1.80;;;10.30;99.90;;;;;;5014067;28;20025;-51
2023/03/25 08:44:43;;;;;;;3.67;1.90;;;10.40;99.90;;;;;;5013930;28;20033;-54
2023/03/25 08:47:30;;;;;;;2.22;1.90;;;10.50;99.90;;;;;;5012177;28;20053;-47
2023/03/25 08:50:16;;;;;;;2.88;2.15;;;10.40;99.90;;;;;;5010421;28;20113;-49
2023/03/25 08:53:02;;;;;;;2.30;1.77;;;10.40;99.90;;;;;;5011248;28;20461;-48
2023/03/25 08:55:56;;;;;;;2.58;2.10;;;10.50;99.90;;;;;;5011536;28;20034;-50
2023/03/25 08:58:42;;;;;;;3.08;1.80;;;10.70;99.90;;;;;;5010307;28;20060;-48
2023/03/25 09:01:28;;;;;;;4.82;2.50;;;10.60;99.90;;;;;;5011751;28;20034;-49
2023/03/25 09:04:14;;;;;;;3.55;2.05;;;10.70;99.90;;;;;;5011356;28;20018;-52
2023/03/25 09:07:00;;;;;;;4.63;2.65;;;10.70;99.90;;;;;;5009576;28;20030;-49
2023/03/25 09:09:46;;;;;;;4.55;2.40;;;10.80;99.90;;;;;;5010804;28;20026;-52
2023/03/25 09:12:32;;;;;;;3.83;2.30;;;10.90;99.90;;;;;;4996166;28;20026;-53
2023/03/25 09:15:18;;;;;;;6.07;2.50;;;10.80;99.90;;;;;;5011361;28;20038;-52
2023/03/25 09:18:04;;;;;;;5.50;2.25;;;10.90;99.90;;;;;;4996641;28;20026;-52
2023/03/25 09:20:50;;;;;;;4.60;2.03;;;10.90;99.90;;;;;;5009829;28;20080;-48
2023/03/25 09:23:36;;;;;;;5.43;2.45;;;10.80;99.90;;;;;;5010263;28;20506;-50
2023/03/25 09:26:24;;;;;;;4.35;2.35;;;10.80;99.90;;;;;;5009355;28;20499;-51
2023/03/25 09:29:10;;;;;;;3.60;2.17;;;10.80;99.90;;;;;;5011024;28;20041;-49
2023/03/25 09:31:59;;;;;;;4.32;2.35;;;11.20;99.90;;;;;;5009856;28;20033;-52
2023/03/25 09:34:45;;;;;;;3.50;2.10;;;11.40;99.90;;;;;;4994584;28;20026;-50
2023/03/25 09:37:32;;;;;;;4.03;2.03;;;11.50;99.90;;;;;;5010091;28;20096;-54
2023/03/25 09:40:19;;;;;;;5.28;2.40;;;11.50;99.90;;;;;;5012723;28;20427;-50
2023/03/25 09:43:31;;;;;;;3.75;2.10;;;11.60;99.90;;;;;;5010400;28;20160;-47
2023/03/25 09:46:17;;;;;;;3.33;1.90;;;11.60;99.90;;;;;;5009556;28;20114;-49
2023/03/25 09:49:11;;;;;;;3.80;2.20;;;11.70;99.90;;;;;;4995695;28;20034;-47
2023/03/25 09:51:59;;;;;;;4.45;1.90;;;11.80;99.90;;;;;;5004390;28;20077;-53
2023/03/25 09:54:58;;;;;;;2.58;1.77;;;11.70;99.70;;;;;;5008589;28;20030;-55
2023/03/25 09:57:48;;;;;;;4.75;2.15;;;11.70;98.80;;;;;;5001780;28;20399;-54
2023/03/25 10:00:34;;;;;;;3.97;1.80;;;11.60;99.00;;;;;;4990176;28;20113;-51
2023/03/25 10:03:36;;;;;;;4.15;2.10;;;11.50;99.20;;;;;;4991372;28;20026;-56
2023/03/25 10:06:25;;;;;;;3.08;2.08;;;11.50;99.10;;;;;;4991683;28;20030;-50
2023/03/25 10:09:23;;;;;;;4.90;2.33;;;11.40;99.10;;;;;;4991185;28;20023;-53
2023/03/25 10:12:42;;;;;;;4.18;1.92;;;11.60;99.20;;;;;;4999898;28;20080;-53
2023/03/25 10:15:36;;;;;;;3.80;1.88;;;11.70;99.20;;;;;;5005208;28;20158;-56
2023/03/25 10:18:49;;;;;;;5.63;1.98;;;11.70;99.20;;;;;;4999807;28;20034;-54
2023/03/25 10:21:41;;;;;;;3.47;2.05;;;11.70;98.70;;;;;;4997381;28;20034;-53
2023/03/25 10:24:38;;;;;;;2.03;1.67;;;11.70;98.90;;;;;;4994257;28;20502;-52
2023/03/25 10:27:40;;;;;;;5.35;1.92;;;11.70;98.80;;;;;;5006462;28;20030;-53
2023/03/25 10:30:30;;;;;;;5.05;2.50;;;11.70;99.10;;;;;;5011569;28;20034;-54
2023/03/25 10:33:35;;;;;;;2.75;1.77;;;11.80;99.20;;;;;;5013161;28;20053;-52
2023/03/25 10:36:48;;;;;;;4.20;1.90;;;12.00;98.70;;;;;;5005606;28;20410;-56
2023/03/25 10:39:38;;;;;;;4.43;1.70;;;11.90;98.70;;;;;;5014663;28;20093;-54
2023/03/25 10:42:45;;;;;;;2.75;1.90;;;11.90;98.90;;;;;;5014385;28;20026;-54
2023/03/25 10:45:32;;;;;;;4.90;1.95;;;11.80;98.60;;;;;;5010787;28;20041;-54
2023/03/25 10:48:26;;;;;;;3.95;1.80;;;11.70;98.70;;;;;;5013306;28;20470;-53
2023/03/25 10:51:19;;;;;;;6.05;2.30;;;11.60;98.50;;;;;;5014586;28;20076;-57
2023/03/25 10:54:05;;;;;;;3.50;2.05;;;11.50;98.70;;;;;;5013084;28;20121;-55
2023/03/25 10:56:55;;;;;;;4.43;2.00;;;11.60;98.70;;;;;;5012512;28;20026;-56
2023/03/25 10:59:55;;;;;;;5.80;2.30;;;11.60;98.90;;;;;;5012226;28;20121;-55
2023/03/25 11:02:41;;;;;;;14.95;2.60;;;11.80;99.20;;;;;;5001420;28;20022;-60
2023/03/25 11:05:28;;;;;;;3.78;2.42;;;12.20;99.30;;;;;;5010098;28;20417;-58
2023/03/25 11:08:20;;;;;;;7.63;2.30;;;12.30;98.50;;;;;;5013349;28;20058;-57
2023/03/25 11:11:07;;;;;;;6.03;2.33;;;12.30;98.60;;;;;;5012378;28;20498;-54
2023/03/25 11:13:56;;;;;;;4.55;2.33;;;12.50;98.10;;;;;;5013662;28;20030;-53
2023/03/25 11:16:54;;;;;;;4.45;2.08;;;12.60;98.40;;;;;;5009294;28;20431;-53
2023/03/25 11:19:52;;;;;;;3.78;1.90;;;12.60;97.90;;;;;;4992505;28;20085;-56
2023/03/25 11:22:45;;;;;;;4.35;1.95;;;12.80;98.10;;;;;;5011252;28;20041;-56
2023/03/25 11:25:38;;;;;;;4.95;2.10;;;12.80;97.40;;;;;;5013665;28;20048;-56
2023/03/25 11:28:40;;;;;;;4.85;2.40;;;12.90;96.60;;;;;;5011892;28;20026;-57
2023/03/25 11:31:29;;;;;;;4.80;1.90;;;12.80;96.30;;;;;;5009537;28;20068;-48
2023/03/25 11:34:20;;;;;;;3.53;2.20;;;12.60;96.10;;;;;;5012165;28;20026;-52
2023/03/25 11:37:15;;;;;;;2.20;1.70;;;12.60;96.60;;;;;;5003707;28;20441;-53
2023/03/25 11:40:14;;;;;;;3.28;1.80;;;12.70;96.10;;;;;;4994325;28;20593;-53
2023/03/25 11:43:01;;;;;;;5.72;2.33;;;12.60;96.40;;;;;;5010607;28;20457;-55
2023/03/25 11:45:48;;;;;;;3.58;1.90;;;12.60;96.30;;;;;;5012067;28;20048;-56
2023/03/25 11:48:38;;;;;;;2.03;1.52;;;12.50;95.90;;;;;;4993495;28;20495;-54
2023/03/25 11:51:28;;;;;;;2.75;1.85;;;12.50;96.60;;;;;;4997457;28;20088;-55
2023/03/25 11:54:16;;;;;;;4.60;2.25;;;12.50;96.60;;;;;;5018098;28;20526;-54
2023/03/25 11:57:10;;;;;;;2.40;1.50;;;12.50;97.00;;;;;;5021932;28;20399;-54
2023/03/25 12:00:27;;;;;;;6.13;1.90;;;12.40;96.90;;;;;;5012290;28;20036;-54
2023/03/25 12:03:16;;;;;;;3.08;1.98;;;12.50;97.00;;;;;;5010491;28;20660;-51
2023/03/25 12:06:02;;;;;;;2.50;1.77;;;12.60;96.80;;;;;;4999034;28;20586;-54
2023/03/25 12:08:51;;;;;;;3.35;1.83;;;12.50;97.10;;;;;;5001281;28;20105;-55
2023/03/25 12:11:59;;;;;;;2.78;1.65;;;12.60;96.70;;;;;;4988166;28;20057;-50
2023/03/25 12:14:56;;;;;;;9.07;5.18;;;12.60;96.50;;;;;;5011405;28;20030;-56
2023/03/25 12:18:15;;;;;;;3.35;2.03;;;12.50;97.10;;;;;;4998018;28;20636;-56
2023/03/25 12:21:53;;;;;;;2.58;1.60;;;12.50;97.00;;;;;;5005430;28;20196;-56
2023/03/25 12:25:17;;;;;;;2.92;1.85;;;12.60;97.00;;;;;;4966945;28;20057;-52
2023/03/25 12:28:23;;;;;;;4.40;2.10;;;12.40;96.60;;;;;;5005862;28;20064;-54
2023/03/25 12:31:23;;;;;;;3.53;2.22;;;12.40;97.10;;;;;;5008221;28;20033;-54
2023/03/25 12:34:30;;;;;;;4.40;2.20;;;12.40;97.10;;;;;;5000349;28;20409;-54
2023/03/25 12:37:25;;;;;;;3.53;2.08;;;12.30;97.40;;;;;;5010427;28;20040;-51
2023/03/25 12:40:23;;;;;;;4.38;2.15;;;12.40;97.10;;;;;;5006271;28;20062;-54
2023/03/25 12:43:15;;;;;;;1.98;1.63;;;12.40;97.60;;;;;;5011393;28;20050;-50
2023/03/25 12:46:24;;;;;;;1.95;1.20;;;11.60;99.10;;;;;;5011075;28;20337;-53
2023/03/25 12:49:35;;;;;;;0.70;0.70;;;10.90;99.90;;;;;;5011241;28;20026;-54
2023/03/25 12:52:50;;;;;;;0.80;0.80;;;10.60;99.90;;;;;;5000536;28;20019;-53
2023/03/25 12:56:08;;;;;;;0.75;0.75;;;10.40;99.90;;;;;;5006502;28;20061;-52
2023/03/25 12:59:09;;;;;;;1.33;1.23;;;10.40;99.90;;;;;;5006666;28;20538;-53
2023/03/25 13:02:01;;;;;;;1.00;0.88;;;10.40;99.90;;;;;;5010209;28;20570;-55
2023/03/25 13:04:50;;;;;;;1.83;1.35;;;10.40;99.90;;;;;;5011157;28;20030;-54
2023/03/25 13:08:03;;;;;;;1.58;1.20;;;10.50;99.90;;;;;;4995448;28;20055;-53
2023/03/25 13:11:07;;;;;;;2.30;1.50;;;10.50;99.90;;;;;;5009047;28;20083;-54
2023/03/25 13:13:57;;;;;;;1.48;1.20;;;10.80;99.90;;;;;;4996400;28;20026;-56
2023/03/25 13:16:44;;;;;;;2.08;1.38;;;10.90;99.90;;;;;;5009957;28;20066;-53
2023/03/25 13:19:35;;;;;;;2.17;1.83;;;10.70;99.90;;;;;;4995140;28;20128;-54
2023/03/25 13:22:28;;;;;;;2.50;1.40;;;10.80;99.90;;;;;;5009870;28;20324;-53
2023/03/25 13:25:23;;;;;;;2.25;1.60;;;10.70;99.90;;;;;;5007043;28;20483;-55
2023/03/25 13:28:15;;;;;;;4.45;1.60;;;10.80;99.90;;;;;;5006550;28;20029;-54
2023/03/25 13:31:01;;;;;;;3.47;1.80;;;11.00;99.90;;;;;;5011646;28;20038;-52
2023/03/25 13:34:05;;;;;;;3.80;1.50;;;11.10;99.90;;;;;;5003620;28;20040;-52
2023/03/25 13:37:32;;;;;;;1.58;1.35;;;11.30;99.90;;;;;;5006572;28;20026;-48
2023/03/25 13:40:39;;;;;;;2.45;1.88;;;10.90;99.90;;;;;;5010123;28;20029;-51
2023/03/25 13:43:32;;;;;;;2.58;1.80;;;10.90;99.90;;;;;;5009691;28;20026;-53
2023/03/25 13:46:34;;;;;;;3.45;1.83;;;11.00;99.90;;;;;;4991408;28;20290;-49
2023/03/25 13:49:31;;;;;;;4.32;2.00;;;11.00;99.90;;;;;;4996049;28;20022;-54
2023/03/25 13:52:17;;;;;;;3.08;1.92;;;11.00;99.90;;;;;;5008970;28;20036;-52
2023/03/25 13:55:14;;;;;;;2.67;1.90;;;11.00;99.90;;;;;;5010348;28;20030;-51
2023/03/25 13:58:07;;;;;;;2.53;1.58;;;11.10;99.90;;;;;;5005572;28;20032;-57
2023/03/25 14:01:21;;;;;;;10.13;2.90;;;11.10;99.90;;;;;;5011716;28;20034;-53
2023/03/25 14:04:25;;;;;;;3.55;2.22;;;11.40;99.90;;;;;;5009149;28;20076;-53
2023/03/25 14:07:58;;;;;;;3.40;2.17;;;11.70;99.90;;;;;;5009634;28;20025;-55
2023/03/25 14:11:10;;;;;;;2.67;2.00;;;12.10;99.30;;;;;;4996329;28;20034;-56
2023/03/25 14:14:17;;;;;;;5.60;2.55;;;12.50;98.90;;;;;;5009147;28;20503;-51
2023/03/25 14:17:04;;;;;;;4.32;1.98;;;12.60;98.60;;;;;;4989791;28;20117;-54
2023/03/25 14:19:54;;;;;;;3.45;2.28;;;12.80;98.30;;;;;;5003833;28;20037;-55
2023/03/25 14:22:41;;;;;;;4.72;2.25;;;13.20;97.50;;;;;;5009727;28;20057;-52
2023/03/25 14:25:48;;;;;;;4.32;2.42;;;13.00;97.80;;;;;;4995133;28;20030;-55
2023/03/25 14:28:42;;;;;;;3.47;2.30;;;12.60;98.10;;;;;;5006070;28;20102;-55
2023/03/25 14:31:31;;;;;;;7.45;2.58;;;12.40;98.60;;;;;;4998385;28;20088;-53
2023/03/25 14:34:23;;;;;;;5.32;2.38;;;12.30;98.80;;;;;;4993423;28;20546;-55
2023/03/25 14:37:24;;;;;;;2.95;2.22;;;12.60;98.70;;;;;;4993104;28;20118;-57
2023/03/25 14:40:50;;;;;;;4.78;2.60;;;13.00;98.30;;;;;;5007738;28;20117;-52
2023/03/25 14:43:45;;;;;;;5.07;2.38;;;12.80;98.00;;;;;;4911617;29;20363;-54
2023/03/25 14:46:34;;;;;;;2.90;2.33;;;12.40;98.40;;;;;;4924044;29;20067;-54
2023/03/25 14:49:22;;;;;;;4.25;2.40;;;12.20;98.80;;;;;;4988808;28;20057;-51
2023/03/25 14:52:14;;;;;;;5.43;2.40;;;12.10;98.80;;;;;;5007655;28;20072;-53
2023/03/25 14:55:06;;;;;;;3.88;2.63;;;12.00;99.10;;;;;;5008376;28;20037;-53
2023/03/25 14:58:06;;;;;;;3.70;2.30;;;11.90;99.30;;;;;;4990551;28;20030;-55